Brookings, OR

07:26 AM PDT am 25. April 2015 (GMT -0700)
Brookings | | Change Station
CLOSE
Current Station
Flughafen
Location: Brookings,
Höhe: 459 ft
Wetterstationen in der Umgebung

Höhe 459 ft 42.07 °N, 124.29 °W | Updated 30 minutes ago

Bedeckt
Bedeckt
46 °F
gefühlte 46 °F
N
0
Wind Wechselnd Wind aus Nord

Heute
Max. -- | schwach -- °F
--% Regenrisiko
Gestern
Max. -- | schwach -- °F
Precip. -- inch
6:21 AM 8:09 PM
Erstes Viertel, 46% visible
Druck 30.00 inch
Sichtweite 7.0 Meilen
Wolken Few 3100 ft
Bedeckt 4800 ft
Taupunkt 46 °F
Feuchtigkeit 100%
Regen 0.00 inch
Schneehöhe Nicht verfügbar..
UV 0 von 12
Pollen 8.50 von 12
Luftqualität Nicht verfügbar..
Flu Activity Sporadic
METAR KBOK 251356Z AUTO 00000KT 7SM FEW031 OVC048 08/08 A2999 RMK AO2 T00770077 SLP159

More Conditions Fewer Conditions

Druck 30.00 inch
Sichtweite 7.0 Meilen
Wolken Few 3100 ft
Bedeckt 4800 ft
Taupunkt 46 °F
Feuchtigkeit 100%
Regen 0.00 inch
Schneehöhe Nicht verfügbar..
UV 0 von 12
Pollen 8.50 von 12
Luftqualität Nicht verfügbar..
Flu Activity Sporadic
METAR KBOK 251356Z AUTO 00000KT 7SM FEW031 OVC048 08/08 A2999 RMK AO2 T00770077 SLP159

More Conditions Fewer Conditions

10-Day Weather Forecast

Almanac

Astronomie

Apr. 25, 2015 Aufgang Untergang
Genaue Zeit
Bürgerliche Dämmerung
Nautische Dämmerung
Astronomische Dämmerung
Mond
Länge des sichtbaren Lichts
Tageslänge
Tomorrow will be .
, % of the Moon is Illuminated

Heutige Rekorde

State Highs State Lows

Community

WunderPhotos

Upload Photos

1,816,686 Fotos hochgeladen!

WunderBlogs® & News

Nearby

Luftqualität

  Luftqualität LQ Index Schadstoff
Not available.

Schneehöhe

Station Depth Höhe

Erdbebenaktivität

Stadt Distance Mag. Time & Date
Minimum magnitude displayed is 2.5.

küstennahe Wassertemperaturen

Ort Temperatur

Stations

Wetterstationen in der Umgebung

Stationsstandort Temp. Windchill Taupunkt Feuchtigkeit Wind Precip. Höhe Aktualisiert Art